Time;durP1;ratioP1;P1;durP2;ratioP2;P2;SDS_P1;SDS_P2;PMS_P1;PMS_P2;Temp;Humidity;BMP_temperature;BMP_pressure;BME280_temperature;BME280_humidity;BME280_pressure;Samples;Min_cycle;Max_cycle;Signal;HPM_P1;HPM_P2
2022/11/17 00:00:19;;;;;;;32.47;21.67;;;4.10;99.90;;;;;;5066802;28;20213;-82
2022/11/17 00:02:59;;;;;;;27.63;20.13;;;4.10;99.90;;;;;;5049163;28;20193;-81
2022/11/17 00:05:45;;;;;;;27.10;20.50;;;4.20;99.90;;;;;;5060700;28;20212;-83
2022/11/17 00:08:17;;;;;;;28.63;21.77;;;4.10;99.90;;;;;;5039257;28;20189;-86
2022/11/17 00:10:51;;;;;;;30.50;20.30;;;4.30;99.90;;;;;;5050120;28;20200;-81
2022/11/17 00:16:39;;;;;;;24.63;19.02;;;4.10;99.90;;;;;;5048236;28;20209;-83
2022/11/17 00:21:59;;;;;;;30.75;20.70;;;4.20;99.90;;;;;;5048185;28;20197;-82
2022/11/17 00:24:38;;;;;;;25.15;18.95;;;4.20;99.90;;;;;;5046718;28;20205;-83
2022/11/17 00:27:08;;;;;;;28.00;20.67;;;4.20;99.90;;;;;;5055601;28;20197;-83
2022/11/17 00:29:43;;;;;;;22.77;18.73;;;4.20;99.90;;;;;;5047098;28;20192;-83
2022/11/17 00:35:00;;;;;;;24.27;18.80;;;4.20;99.90;;;;;;5054586;28;20234;-84
2022/11/17 00:37:31;;;;;;;23.73;17.73;;;4.20;99.90;;;;;;5049573;28;20220;-82
2022/11/17 00:39:59;;;;;;;24.23;17.05;;;4.20;99.90;;;;;;5038093;28;20205;-82
2022/11/17 00:42:35;;;;;;;23.40;19.05;;;4.10;99.90;;;;;;5021881;28;20258;-81
2022/11/17 00:45:04;;;;;;;26.42;18.50;;;4.10;99.90;;;;;;5043722;28;20196;-81
2022/11/17 00:47:34;;;;;;;22.30;16.95;;;4.10;99.90;;;;;;5043011;28;20221;-83
2022/11/17 00:50:02;;;;;;;21.45;16.05;;;4.10;99.90;;;;;;5046115;28;20214;-82
2022/11/17 00:52:29;;;;;;;21.17;16.10;;;4.10;99.90;;;;;;5034708;28;20232;-87
2022/11/17 00:54:59;;;;;;;31.85;17.90;;;4.70;99.90;;;;;;5033151;28;20275;-84
2022/11/17 00:57:26;;;;;;;22.98;17.85;;;4.20;99.90;;;;;;5043216;28;20212;-83
2022/11/17 00:59:53;;;;;;;21.73;16.92;;;4.20;99.90;;;;;;5042834;28;20205;-83
2022/11/17 01:02:22;;;;;;;20.70;17.58;;;4.10;99.90;;;;;;5075839;28;20212;-82
2022/11/17 01:04:49;;;;;;;20.92;15.30;;;4.10;99.90;;;;;;5011175;28;20197;-83
2022/11/17 01:07:20;;;;;;;20.67;15.13;;;4.20;99.90;;;;;;5049320;28;20275;-83
2022/11/17 01:09:48;;;;;;;23.38;16.65;;;4.20;99.90;;;;;;5059206;28;20222;-83
2022/11/17 01:12:17;;;;;;;23.40;17.38;;;4.20;99.90;;;;;;5044269;28;20582;-82
2022/11/17 01:14:51;;;;;;;22.15;16.13;;;4.20;99.90;;;;;;5035222;28;20185;-88
2022/11/17 01:17:20;;;;;;;21.85;16.40;;;4.20;99.90;;;;;;5067478;28;20219;-83
2022/11/17 01:19:50;;;;;;;21.48;15.63;;;4.10;99.90;;;;;;5075134;28;20291;-88
2022/11/17 01:22:18;;;;;;;20.38;16.95;;;4.10;99.90;;;;;;5079541;28;20220;-80
2022/11/17 01:24:45;;;;;;;24.77;18.60;;;4.10;99.90;;;;;;5063917;28;20228;-84
2022/11/17 01:27:12;;;;;;;22.25;17.20;;;4.20;99.90;;;;;;5047160;28;20201;-82
2022/11/17 01:29:44;;;;;;;21.45;15.77;;;4.20;99.90;;;;;;5044193;28;20209;-81
2022/11/17 01:32:13;;;;;;;24.80;17.58;;;4.10;99.90;;;;;;5043790;28;20241;-84
2022/11/17 01:34:43;;;;;;;18.95;15.35;;;4.20;99.90;;;;;;5047288;28;20272;-88
2022/11/17 01:37:18;;;;;;;23.33;17.40;;;4.20;99.90;;;;;;5033050;28;20495;-82
2022/11/17 01:39:46;;;;;;;24.52;17.38;;;4.10;99.90;;;;;;5042078;28;20193;-82
2022/11/17 01:42:18;;;;;;;19.35;15.98;;;4.20;99.90;;;;;;5034996;28;20468;-86
2022/11/17 01:45:17;;;;;;;18.27;14.35;;;4.20;99.90;;;;;;5051944;28;20262;-84
2022/11/17 01:47:49;;;;;;;19.48;13.20;;;4.20;99.90;;;;;;5043824;28;20231;-86
2022/11/17 01:50:36;;;;;;;18.55;14.68;;;4.20;99.90;;;;;;5049380;28;20254;-81
2022/11/17 01:53:15;;;;;;;20.15;15.07;;;4.20;99.90;;;;;;5061236;28;20224;-84
2022/11/17 01:55:49;;;;;;;20.92;14.40;;;4.20;99.90;;;;;;5052542;28;20284;-85
2022/11/17 01:58:26;;;;;;;16.08;13.25;;;4.20;99.90;;;;;;5050405;28;20200;-84
2022/11/17 02:00:54;;;;;;;14.63;12.40;;;4.20;99.90;;;;;;5026117;28;20219;-85
2022/11/17 02:03:23;;;;;;;17.75;14.15;;;4.20;99.90;;;;;;5044430;28;20408;-85
2022/11/17 02:06:07;;;;;;;17.65;12.07;;;4.20;99.90;;;;;;5049477;28;20443;-85
2022/11/17 02:08:37;;;;;;;18.05;13.25;;;4.20;99.90;;;;;;5041696;28;20235;-85
2022/11/17 02:11:11;;;;;;;16.85;13.20;;;4.20;99.90;;;;;;5046440;28;20273;-86
2022/11/17 02:13:43;;;;;;;19.48;15.18;;;4.10;99.90;;;;;;5077307;28;20220;-84
2022/11/17 02:16:15;;;;;;;18.17;15.55;;;4.10;99.90;;;;;;5065949;28;20239;-84
2022/11/17 02:18:47;;;;;;;16.88;14.13;;;4.20;99.90;;;;;;5035472;28;20210;-84
2022/11/17 02:21:47;;;;;;;20.23;14.18;;;4.30;99.90;;;;;;5044606;28;20196;-87
2022/11/17 02:24:38;;;;;;;20.13;14.18;;;4.20;99.90;;;;;;5017006;28;20276;-84
2022/11/17 02:27:39;;;;;;;23.83;16.48;;;4.20;99.90;;;;;;5048132;28;20217;-82
2022/11/17 02:30:16;;;;;;;21.48;15.90;;;4.30;99.90;;;;;;5056568;28;20212;-85
2022/11/17 02:32:57;;;;;;;19.95;16.40;;;4.30;99.90;;;;;;5042728;28;20220;-84
2022/11/17 02:36:20;;;;;;;21.95;15.27;;;4.20;99.90;;;;;;5031166;28;20208;-86
2022/11/17 02:38:56;;;;;;;25.10;18.55;;;4.30;99.90;;;;;;5055211;28;20204;-81
2022/11/17 02:42:19;;;;;;;23.05;16.80;;;4.20;99.90;;;;;;5049598;28;20213;-82
2022/11/17 02:44:56;;;;;;;25.42;17.65;;;4.20;99.90;;;;;;5015099;28;20212;-87
2022/11/17 02:47:32;;;;;;;25.83;17.70;;;4.30;99.90;;;;;;5052647;28;20203;-84
2022/11/17 02:50:05;;;;;;;16.73;13.02;;;4.20;99.90;;;;;;5057807;28;20204;-83
2022/11/17 02:52:33;;;;;;;27.77;17.52;;;4.20;99.90;;;;;;5041075;28;20236;-83
2022/11/17 02:55:06;;;;;;;28.20;19.85;;;4.30;99.90;;;;;;5045769;28;20202;-83
2022/11/17 02:57:36;;;;;;;21.48;15.80;;;4.20;99.90;;;;;;5028965;28;20204;-82
2022/11/17 03:00:04;;;;;;;19.45;15.73;;;4.30;99.90;;;;;;5040584;28;20708;-84
2022/11/17 03:03:07;;;;;;;21.52;14.60;;;4.20;99.90;;;;;;5051747;28;20308;-83
2022/11/17 03:05:45;;;;;;;23.90;16.10;;;4.30;99.90;;;;;;5064815;28;20226;-83
2022/11/17 03:08:42;;;;;;;22.90;16.88;;;4.30;99.90;;;;;;5028150;28;20246;-83
2022/11/17 03:11:13;;;;;;;20.83;16.50;;;4.30;99.90;;;;;;5033153;28;20403;-83
2022/11/17 03:13:55;;;;;;;22.00;16.95;;;4.30;99.90;;;;;;5040888;28;20227;-85
2022/11/17 03:16:36;;;;;;;23.40;17.13;;;4.30;99.90;;;;;;5042362;28;20219;-86
2022/11/17 03:19:15;;;;;;;24.13;18.70;;;4.20;99.90;;;;;;5035613;28;20228;-84
2022/11/17 03:25:05;;;;;;;27.92;17.52;;;4.30;99.90;;;;;;5054778;28;20328;-88
2022/11/17 03:27:49;;;;;;;26.85;19.00;;;4.40;99.90;;;;;;5045108;28;20255;-87
2022/11/17 03:30:18;;;;;;;25.67;18.50;;;4.30;99.90;;;;;;5040704;28;20236;-83
2022/11/17 03:32:51;;;;;;;24.25;17.65;;;4.40;99.90;;;;;;5041396;28;20252;-84
2022/11/17 03:35:22;;;;;;;24.58;18.95;;;4.20;99.90;;;;;;5039371;28;20508;-86
2022/11/17 03:37:54;;;;;;;25.90;17.85;;;4.30;99.90;;;;;;5035163;28;20212;-83
2022/11/17 03:40:31;;;;;;;26.40;19.33;;;4.30;99.90;;;;;;5041854;28;20392;-84
2022/11/17 03:43:03;;;;;;;25.65;17.70;;;4.30;99.90;;;;;;5041307;28;20383;-83
2022/11/17 03:45:33;;;;;;;27.75;19.35;;;4.30;99.90;;;;;;5050136;28;20209;-82
2022/11/17 03:48:13;;;;;;;30.15;20.02;;;4.30;99.90;;;;;;5045058;28;20512;-83
2022/11/17 03:50:49;;;;;;;28.67;17.70;;;4.30;99.90;;;;;;5042213;28;20205;-85
2022/11/17 03:53:21;;;;;;;25.67;18.05;;;4.50;99.90;;;;;;5046148;28;20585;-81
2022/11/17 03:56:07;;;;;;;24.88;18.05;;;4.30;99.90;;;;;;5024971;28;20232;-82
2022/11/17 03:58:42;;;;;;;28.40;19.08;;;4.30;99.90;;;;;;5041318;28;20232;-84
2022/11/17 04:01:11;;;;;;;28.10;19.60;;;4.30;99.90;;;;;;5015276;28;20193;-81
2022/11/17 04:03:41;;;;;;;26.50;18.02;;;4.40;99.90;;;;;;5039820;28;20293;-83
2022/11/17 04:06:14;;;;;;;26.15;19.00;;;4.30;99.90;;;;;;5038757;28;20205;-85
2022/11/17 04:08:43;;;;;;;28.52;18.00;;;4.30;99.90;;;;;;5055567;28;20244;-85
2022/11/17 04:16:43;;;;;;;27.73;19.55;;;4.30;99.90;;;;;;5040714;28;20281;-86
2022/11/17 04:19:10;;;;;;;31.77;23.00;;;4.30;99.90;;;;;;5041833;28;20741;-81
2022/11/17 04:21:37;;;;;;;33.92;19.88;;;4.20;99.90;;;;;;5021396;28;20212;-81
2022/11/17 04:24:05;;;;;;;28.30;19.45;;;4.20;99.90;;;;;;5065788;28;20246;-81
2022/11/17 04:29:24;;;;;;;29.67;20.98;;;4.40;99.90;;;;;;5064328;28;20212;-82
2022/11/17 04:31:51;;;;;;;25.88;18.20;;;4.30;99.90;;;;;;5034567;28;20251;-84
2022/11/17 04:34:18;;;;;;;26.33;17.85;;;4.30;99.90;;;;;;5026314;28;20221;-81
2022/11/17 04:36:48;;;;;;;23.80;16.83;;;4.20;99.90;;;;;;5034260;28;20236;-82
2022/11/17 04:39:15;;;;;;;27.75;18.55;;;4.20;99.90;;;;;;5046002;28;20216;-82
2022/11/17 04:42:03;;;;;;;29.27;18.48;;;4.00;99.90;;;;;;5042847;28;20209;-83
2022/11/17 04:44:32;;;;;;;23.25;16.55;;;4.20;99.90;;;;;;5032597;28;20266;-83
2022/11/17 04:47:01;;;;;;;23.35;17.33;;;4.20;99.90;;;;;;5050411;28;20416;-87
2022/11/17 04:49:31;;;;;;;28.48;18.42;;;4.20;99.90;;;;;;5057335;28;20220;-82
2022/11/17 04:52:00;;;;;;;20.38;15.95;;;4.20;99.90;;;;;;5051998;28;20216;-85
2022/11/17 04:54:27;;;;;;;21.55;15.68;;;4.20;99.90;;;;;;5042275;28;20237;-83
2022/11/17 04:56:55;;;;;;;24.02;16.88;;;4.40;99.90;;;;;;5042373;28;20250;-82
2022/11/17 04:59:24;;;;;;;20.77;16.35;;;4.20;99.90;;;;;;5049567;28;20425;-83
2022/11/17 05:01:53;;;;;;;22.55;16.05;;;4.20;99.90;;;;;;5053618;28;20208;-82
2022/11/17 05:07:07;;;;;;;27.25;16.50;;;4.30;99.90;;;;;;5025660;28;20201;-82
2022/11/17 05:09:36;;;;;;;21.10;15.30;;;4.30;99.90;;;;;;5043091;28;20275;-86
2022/11/17 05:14:54;;;;;;;21.48;16.02;;;4.30;99.90;;;;;;5044816;28;20414;-84
2022/11/17 05:17:24;;;;;;;20.27;14.32;;;4.30;99.90;;;;;;5015963;28;20285;-81
2022/11/17 05:19:52;;;;;;;23.38;15.50;;;4.20;99.90;;;;;;5040433;28;20217;-84
2022/11/17 05:25:11;;;;;;;19.70;13.38;;;4.30;99.90;;;;;;5052540;28;20190;-85
2022/11/17 05:27:40;;;;;;;20.67;14.10;;;4.10;99.90;;;;;;5059402;28;20217;-85
2022/11/17 05:30:34;;;;;;;19.75;13.13;;;4.30;99.90;;;;;;5057772;28;20529;-85
2022/11/17 05:33:18;;;;;;;19.30;14.10;;;4.30;99.90;;;;;;5055721;28;20216;-84
2022/11/17 05:35:46;;;;;;;18.10;13.90;;;4.20;99.90;;;;;;5057752;28;20216;-83
2022/11/17 05:38:13;;;;;;;18.42;14.02;;;4.20;99.90;;;;;;5055579;28;20264;-83
2022/11/17 05:40:41;;;;;;;18.35;12.73;;;4.20;99.90;;;;;;5044863;28;20365;-81
2022/11/17 05:43:08;;;;;;;17.17;12.48;;;4.20;99.90;;;;;;5026424;28;20230;-83
2022/11/17 05:45:38;;;;;;;20.35;14.48;;;4.20;99.90;;;;;;5043176;28;20500;-81
2022/11/17 05:48:07;;;;;;;20.42;15.65;;;4.40;99.90;;;;;;5043515;28;20759;-81
2022/11/17 05:50:36;;;;;;;21.45;14.57;;;4.20;99.90;;;;;;5029857;28;20251;-82
2022/11/17 05:53:06;;;;;;;20.67;14.50;;;4.20;99.90;;;;;;5046282;28;20223;-82
2022/11/17 05:55:36;;;;;;;18.90;13.77;;;4.20;99.90;;;;;;5043118;28;20251;-82
2022/11/17 05:58:25;;;;;;;19.70;13.70;;;4.20;99.90;;;;;;5025661;28;20213;-81
2022/11/17 06:00:56;;;;;;;15.63;13.52;;;4.20;99.90;;;;;;5041742;28;20205;-83
2022/11/17 06:03:28;;;;;;;19.73;14.45;;;4.20;99.90;;;;;;5046809;28;20235;-84
2022/11/17 06:05:55;;;;;;;19.70;15.13;;;4.20;99.90;;;;;;5028164;28;20243;-81
2022/11/17 06:08:24;;;;;;;16.17;13.65;;;4.10;99.90;;;;;;5063269;28;20212;-81
2022/11/17 06:10:51;;;;;;;19.67;15.40;;;4.10;99.90;;;;;;5043454;28;20423;-80
2022/11/17 06:13:27;;;;;;;17.52;13.25;;;4.20;99.90;;;;;;5025544;28;20229;-81
2022/11/17 06:15:57;;;;;;;20.40;14.07;;;4.20;99.90;;;;;;5039961;28;20193;-81
2022/11/17 06:18:29;;;;;;;15.57;13.73;;;4.10;99.90;;;;;;5041303;28;20492;-81
2022/11/17 06:20:57;;;;;;;18.25;15.27;;;4.20;99.90;;;;;;5039535;28;20504;-80
2022/11/17 06:23:27;;;;;;;19.52;14.95;;;4.10;99.90;;;;;;5040568;28;20327;-84
2022/11/17 06:25:55;;;;;;;19.42;14.55;;;4.10;99.90;;;;;;5039898;28;20259;-82
2022/11/17 06:28:23;;;;;;;18.90;14.82;;;4.20;99.90;;;;;;5044485;28;20212;-81
2022/11/17 06:30:50;;;;;;;15.23;12.60;;;4.10;99.90;;;;;;5040814;28;20274;-83
2022/11/17 06:33:18;;;;;;;21.40;15.60;;;4.20;99.90;;;;;;5032957;28;20218;-78
2022/11/17 06:35:46;;;;;;;17.85;12.38;;;4.10;99.90;;;;;;5040350;28;20267;-84
2022/11/17 06:38:13;;;;;;;17.15;13.02;;;4.20;99.90;;;;;;5043338;28;20258;-83
2022/11/17 06:40:40;;;;;;;18.83;12.60;;;4.30;99.90;;;;;;5046620;28;20196;-84
2022/11/17 06:43:08;;;;;;;15.63;11.48;;;4.30;99.90;;;;;;5041390;28;20496;-82
2022/11/17 06:45:41;;;;;;;15.38;11.48;;;4.20;99.90;;;;;;5043636;28;20205;-83
2022/11/17 06:48:11;;;;;;;18.90;12.90;;;4.20;99.90;;;;;;5030631;28;20200;-82
2022/11/17 06:50:39;;;;;;;16.73;11.85;;;4.20;99.90;;;;;;5041030;28;20214;-82
2022/11/17 06:53:08;;;;;;;15.27;11.93;;;4.40;99.90;;;;;;5040623;28;20204;-80
2022/11/17 06:55:35;;;;;;;13.90;11.45;;;4.20;99.90;;;;;;5041600;28;20204;-82
2022/11/17 06:58:05;;;;;;;14.85;11.25;;;4.20;99.90;;;;;;5056433;28;20527;-82
2022/11/17 07:00:34;;;;;;;19.30;12.50;;;4.20;99.90;;;;;;5040861;28;20212;-84
2022/11/17 07:03:08;;;;;;;16.88;11.98;;;4.20;99.90;;;;;;5028336;28;20255;-82
2022/11/17 07:05:37;;;;;;;16.55;12.00;;;4.20;99.90;;;;;;5039561;28;20197;-79
2022/11/17 07:08:07;;;;;;;16.60;13.50;;;4.20;99.90;;;;;;5038877;28;20205;-81
2022/11/17 07:10:36;;;;;;;14.80;11.15;;;4.20;99.90;;;;;;5039151;28;20271;-82
2022/11/17 07:13:04;;;;;;;16.17;11.88;;;4.20;99.90;;;;;;5040492;28;20564;-84
2022/11/17 07:15:31;;;;;;;16.42;12.32;;;4.20;99.90;;;;;;5058251;28;20208;-80
2022/11/17 07:18:01;;;;;;;16.23;12.07;;;4.30;99.90;;;;;;5047856;28;20197;-81
2022/11/17 07:20:28;;;;;;;13.90;11.68;;;4.30;99.90;;;;;;5041461;28;20516;-82
2022/11/17 07:22:59;;;;;;;14.43;11.18;;;4.40;99.90;;;;;;5042591;28;20295;-80
2022/11/17 07:25:26;;;;;;;17.05;11.40;;;4.40;99.90;;;;;;5040647;28;20216;-79
2022/11/17 07:27:59;;;;;;;14.43;11.10;;;4.40;99.90;;;;;;5040175;28;20491;-79
2022/11/17 07:30:26;;;;;;;16.65;11.52;;;4.40;99.90;;;;;;5040189;28;20376;-80
2022/11/17 07:32:54;;;;;;;13.35;11.13;;;4.40;99.90;;;;;;5033217;28;20272;-81
2022/11/17 07:35:21;;;;;;;11.98;9.82;;;4.30;99.90;;;;;;5040090;28;20229;-82
2022/11/17 07:37:48;;;;;;;13.80;9.73;;;4.40;99.90;;;;;;5039386;28;20201;-83
2022/11/17 07:40:15;;;;;;;12.15;10.73;;;4.40;99.90;;;;;;5039868;28;20354;-81
2022/11/17 07:42:48;;;;;;;10.70;8.98;;;4.50;99.90;;;;;;5043958;28;20235;-81
2022/11/17 07:45:15;;;;;;;12.90;11.10;;;4.50;99.90;;;;;;5042216;28;20199;-81
2022/11/17 07:47:42;;;;;;;13.40;10.07;;;4.50;99.90;;;;;;5036537;28;20568;-81
2022/11/17 07:50:09;;;;;;;11.32;9.90;;;4.60;99.90;;;;;;5039786;28;20413;-83
2022/11/17 07:52:36;;;;;;;12.38;9.73;;;4.70;99.90;;;;;;5039164;28;20270;-82
2022/11/17 07:55:07;;;;;;;8.15;7.13;;;4.70;99.90;;;;;;5039767;28;20236;-85
2022/11/17 07:57:36;;;;;;;9.57;8.57;;;4.60;99.90;;;;;;5041600;28;20459;-83
2022/11/17 08:00:03;;;;;;;11.70;9.60;;;4.70;99.90;;;;;;5034789;28;20252;-80
2022/11/17 08:02:30;;;;;;;11.23;7.97;;;4.70;99.90;;;;;;5035181;28;20212;-81
2022/11/17 08:04:57;;;;;;;7.47;6.68;;;4.70;99.90;;;;;;5049002;28;20192;-85
2022/11/17 08:07:24;;;;;;;11.40;8.77;;;4.60;99.90;;;;;;5047625;28;20215;-82
2022/11/17 08:09:57;;;;;;;10.77;8.18;;;4.60;99.90;;;;;;5062404;28;20447;-81
2022/11/17 08:12:24;;;;;;;9.57;7.38;;;4.50;99.90;;;;;;5046275;28;20508;-80
2022/11/17 08:14:53;;;;;;;10.00;7.88;;;4.60;99.90;;;;;;5060054;28;20220;-85
2022/11/17 08:17:20;;;;;;;9.75;7.65;;;4.60;99.90;;;;;;5044783;28;20213;-81
2022/11/17 08:19:47;;;;;;;9.07;8.05;;;4.60;99.90;;;;;;5045109;28;20424;-82
2022/11/17 08:22:15;;;;;;;7.95;7.15;;;4.60;99.90;;;;;;5047979;28;20196;-82
2022/11/17 08:24:42;;;;;;;10.38;8.35;;;4.70;99.90;;;;;;5043836;28;20453;-81
2022/11/17 08:27:10;;;;;;;10.10;8.05;;;4.60;99.90;;;;;;5047018;28;20211;-80
2022/11/17 08:29:37;;;;;;;7.50;6.80;;;4.60;99.90;;;;;;5042974;28;20255;-81
2022/11/17 08:32:07;;;;;;;10.77;8.55;;;4.60;99.90;;;;;;5043656;28;20212;-83
2022/11/17 08:34:36;;;;;;;9.50;8.05;;;4.70;99.90;;;;;;5049886;28;20311;-84
2022/11/17 08:37:05;;;;;;;10.05;7.50;;;4.70;99.90;;;;;;5052656;28;20289;-82
2022/11/17 08:39:32;;;;;;;10.82;8.07;;;4.60;99.90;;;;;;5045945;28;20217;-81
2022/11/17 08:42:02;;;;;;;12.38;8.35;;;4.80;99.90;;;;;;5044311;28;20664;-83
2022/11/17 08:44:31;;;;;;;9.98;8.20;;;4.70;99.90;;;;;;5042538;28;20262;-82
2022/11/17 08:47:01;;;;;;;10.45;8.35;;;4.60;99.90;;;;;;5050859;28;20279;-86
2022/11/17 08:49:29;;;;;;;9.30;7.85;;;4.70;99.90;;;;;;5043418;28;20201;-81
2022/11/17 08:51:56;;;;;;;10.70;9.15;;;4.70;99.90;;;;;;5042186;28;20209;-81
2022/11/17 08:54:24;;;;;;;8.73;7.82;;;4.70;99.90;;;;;;5051366;28;20228;-82
2022/11/17 08:56:56;;;;;;;9.43;7.07;;;4.70;99.90;;;;;;5035536;28;20312;-82
2022/11/17 08:59:26;;;;;;;10.63;7.95;;;4.70;99.90;;;;;;5054077;28;20195;-83
2022/11/17 09:01:56;;;;;;;10.50;8.55;;;4.70;99.90;;;;;;5043594;28;20776;-83
2022/11/17 09:04:23;;;;;;;10.88;9.05;;;4.70;99.90;;;;;;5040461;28;20252;-82
2022/11/17 09:06:52;;;;;;;10.32;7.75;;;4.60;99.90;;;;;;5046310;28;20197;-85
2022/11/17 09:09:22;;;;;;;11.43;8.07;;;4.80;99.90;;;;;;5041045;28;20204;-85
2022/11/17 09:11:49;;;;;;;8.35;7.40;;;4.70;99.90;;;;;;5050310;28;20645;-82
2022/11/17 09:14:18;;;;;;;9.13;7.07;;;4.70;99.90;;;;;;5036488;28;20292;-82
2022/11/17 09:16:45;;;;;;;11.65;7.97;;;4.70;99.90;;;;;;5056962;28;20236;-82
2022/11/17 09:19:12;;;;;;;8.63;6.40;;;4.70;99.90;;;;;;5042606;28;20312;-80
2022/11/17 09:21:39;;;;;;;6.53;5.70;;;4.80;99.90;;;;;;5042223;28;20228;-83
2022/11/17 09:24:09;;;;;;;8.48;7.35;;;4.80;99.90;;;;;;5041386;28;20208;-82
2022/11/17 09:26:39;;;;;;;6.85;6.00;;;4.80;99.90;;;;;;5042466;28;20213;-84
2022/11/17 09:29:07;;;;;;;9.80;6.68;;;4.80;99.90;;;;;;5037037;28;20205;-83
2022/11/17 09:31:36;;;;;;;7.68;6.40;;;4.80;99.90;;;;;;5042277;28;20221;-84
2022/11/17 09:34:03;;;;;;;8.30;6.60;;;5.00;99.90;;;;;;5038526;28;20299;-85
2022/11/17 09:36:32;;;;;;;7.47;5.85;;;5.00;99.90;;;;;;5073215;28;20208;-82
2022/11/17 09:39:00;;;;;;;5.38;4.88;;;5.10;99.90;;;;;;5063162;28;20204;-83
2022/11/17 09:41:46;;;;;;;7.03;6.32;;;5.10;99.90;;;;;;5046522;28;20211;-80
2022/11/17 09:44:40;;;;;;;6.25;5.20;;;4.90;99.90;;;;;;5061100;28;20259;-83
2022/11/17 09:47:39;;;;;;;6.57;5.20;;;4.90;99.90;;;;;;5074988;28;20199;-82
2022/11/17 09:50:21;;;;;;;8.07;5.28;;;5.00;99.90;;;;;;5046844;28;20201;-82
2022/11/17 09:53:04;;;;;;;6.68;5.70;;;5.00;99.90;;;;;;5060781;28;20207;-85
2022/11/17 09:55:36;;;;;;;6.47;5.20;;;5.10;99.90;;;;;;5044776;28;20567;-81
2022/11/17 09:58:31;;;;;;;5.82;5.20;;;5.20;99.90;;;;;;5050546;28;20283;-82
2022/11/17 10:01:00;;;;;;;6.30;5.70;;;5.40;99.90;;;;;;5051608;28;20283;-83
2022/11/17 10:03:35;;;;;;;6.68;5.80;;;5.50;99.90;;;;;;5042514;28;20240;-84
2022/11/17 10:06:15;;;;;;;7.15;6.47;;;5.40;99.90;;;;;;5035372;28;20201;-83
2022/11/17 10:09:16;;;;;;;8.43;5.68;;;5.20;99.90;;;;;;5051825;28;20209;-84
2022/11/17 10:11:53;;;;;;;7.70;6.68;;;5.20;99.90;;;;;;5034104;28;20441;-82
2022/11/17 10:14:21;;;;;;;8.43;7.57;;;5.20;99.90;;;;;;5047627;28;20432;-81
2022/11/17 10:16:53;;;;;;;9.73;6.80;;;5.10;99.90;;;;;;5024610;28;20198;-84
2022/11/17 10:19:26;;;;;;;6.20;5.60;;;4.90;99.90;;;;;;5060745;28;20204;-85
2022/11/17 10:21:57;;;;;;;5.45;4.70;;;4.80;99.90;;;;;;5042075;28;20200;-79
2022/11/17 10:24:42;;;;;;;6.20;5.60;;;4.90;99.90;;;;;;5055766;28;20372;-83
2022/11/17 10:27:35;;;;;;;7.28;6.57;;;5.00;99.90;;;;;;5029026;28;20285;-81
2022/11/17 10:30:24;;;;;;;5.93;5.32;;;5.00;99.90;;;;;;5055801;28;20291;-83
2022/11/17 10:32:54;;;;;;;6.90;5.60;;;4.90;99.90;;;;;;5054591;28;20205;-85
2022/11/17 10:35:21;;;;;;;7.13;5.50;;;4.80;99.90;;;;;;5042577;28;20232;-84
2022/11/17 10:38:02;;;;;;;6.07;5.47;;;4.80;99.90;;;;;;5052468;28;20209;-79
2022/11/17 10:40:50;;;;;;;6.95;5.75;;;4.80;99.90;;;;;;5051961;28;20259;-82
2022/11/17 10:43:35;;;;;;;5.53;5.03;;;4.90;99.90;;;;;;5045380;28;20227;-82
2022/11/17 10:46:14;;;;;;;7.35;5.95;;;5.00;99.90;;;;;;5055011;28;20396;-83
2022/11/17 10:49:00;;;;;;;5.60;5.05;;;5.00;99.90;;;;;;5050012;28;20527;-85
2022/11/17 10:51:33;;;;;;;4.85;4.35;;;5.00;99.90;;;;;;5039210;28;20205;-81
2022/11/17 10:54:16;;;;;;;5.72;4.47;;;5.00;99.90;;;;;;5042222;28;20296;-79
2022/11/17 10:56:53;;;;;;;5.80;5.30;;;5.00;99.90;;;;;;5040111;28;20227;-81
2022/11/17 10:59:32;;;;;;;4.53;4.13;;;5.00;99.90;;;;;;5026673;28;20402;-82
2022/11/17 11:02:30;;;;;;;7.45;5.47;;;5.00;99.90;;;;;;5041420;28;20206;-85
2022/11/17 11:05:10;;;;;;;5.95;4.38;;;5.10;99.90;;;;;;5026077;28;20668;-82
2022/11/17 11:07:40;;;;;;;6.13;5.53;;;5.20;99.90;;;;;;5028478;28;20397;-82
2022/11/17 11:10:17;;;;;;;5.25;3.20;;;5.10;99.90;;;;;;5033994;28;20505;-82
2022/11/17 11:12:51;;;;;;;5.18;4.45;;;5.00;99.90;;;;;;5041319;28;20209;-86
2022/11/17 11:15:22;;;;;;;4.07;3.78;;;4.90;99.90;;;;;;5048443;28;20226;-80
2022/11/17 11:17:50;;;;;;;6.30;4.38;;;5.00;99.90;;;;;;5035546;28;20774;-82
2022/11/17 11:20:38;;;;;;;5.20;4.55;;;4.90;99.90;;;;;;5044103;28;20208;-83
2022/11/17 11:23:46;;;;;;;4.80;4.30;;;4.80;99.90;;;;;;5047298;28;20267;-81
2022/11/17 11:26:38;;;;;;;4.60;4.20;;;4.80;99.90;;;;;;5067023;28;20196;-85
2022/11/17 11:29:44;;;;;;;6.22;5.45;;;4.80;99.90;;;;;;5054918;28;20200;-82
2022/11/17 11:32:26;;;;;;;6.20;3.95;;;4.70;99.90;;;;;;5058359;28;20262;-84
2022/11/17 11:35:38;;;;;;;4.93;4.45;;;4.70;99.90;;;;;;5037173;28;20240;-82
2022/11/17 11:38:31;;;;;;;5.38;4.45;;;4.70;99.90;;;;;;5055627;28;20189;-83
2022/11/17 11:41:21;;;;;;;4.80;4.28;;;4.70;99.90;;;;;;5036992;28;20192;-82
2022/11/17 11:44:00;;;;;;;5.50;4.90;;;4.80;99.90;;;;;;5056451;28;20212;-88
2022/11/17 11:47:00;;;;;;;6.03;5.00;;;4.80;99.90;;;;;;5050730;28;20511;-83
2022/11/17 11:49:37;;;;;;;9.23;5.03;;;4.80;99.90;;;;;;5052862;28;20200;-83
2022/11/17 11:52:10;;;;;;;5.78;4.68;;;4.80;99.90;;;;;;5062438;28;20234;-84
2022/11/17 11:54:48;;;;;;;6.45;5.25;;;4.80;99.90;;;;;;5049548;28;20232;-83
2022/11/17 11:57:28;;;;;;;6.18;5.30;;;4.90;99.90;;;;;;5045915;28;20204;-82
2022/11/17 12:00:05;;;;;;;6.65;4.55;;;4.80;99.90;;;;;;5038966;28;20217;-83
2022/11/17 12:02:52;;;;;;;7.07;5.15;;;4.60;99.90;;;;;;5046308;28;20215;-83
2022/11/17 12:05:35;;;;;;;8.18;6.15;;;4.60;99.90;;;;;;5046952;28;20239;-83
2022/11/17 12:08:07;;;;;;;7.07;5.18;;;4.60;99.90;;;;;;5043385;28;20228;-84
2022/11/17 12:10:46;;;;;;;7.20;5.30;;;4.80;99.90;;;;;;5045809;28;20275;-81
2022/11/17 12:13:17;;;;;;;6.60;5.30;;;4.80;99.90;;;;;;5053999;28;20199;-84
2022/11/17 12:15:48;;;;;;;6.45;5.38;;;4.90;99.90;;;;;;5048438;28;20412;-80
2022/11/17 12:18:17;;;;;;;7.40;5.35;;;4.80;99.90;;;;;;5063567;28;20223;-82
2022/11/17 12:20:51;;;;;;;6.82;5.70;;;4.70;99.90;;;;;;5043524;28;20267;-83
2022/11/17 12:23:31;;;;;;;5.93;4.88;;;4.70;99.90;;;;;;5042019;28;20437;-80
2022/11/17 12:26:00;;;;;;;12.38;5.63;;;4.80;99.90;;;;;;5042291;28;20212;-82
2022/11/17 12:28:40;;;;;;;6.13;5.47;;;4.70;99.90;;;;;;5025219;28;20211;-84
2022/11/17 12:31:40;;;;;;;6.50;4.53;;;4.70;99.90;;;;;;5060998;28;20209;-85
2022/11/17 12:34:32;;;;;;;5.10;4.70;;;4.80;99.90;;;;;;5046049;28;20201;-85
2022/11/17 12:37:25;;;;;;;5.63;5.13;;;4.60;99.90;;;;;;5044896;28;20196;-82
2022/11/17 12:40:37;;;;;;;7.38;4.90;;;4.60;99.90;;;;;;5029623;28;20205;-85
2022/11/17 12:43:30;;;;;;;5.50;4.93;;;4.60;99.90;;;;;;5034014;28;20197;-85
2022/11/17 12:46:25;;;;;;;5.80;4.90;;;4.50;99.90;;;;;;5039561;28;20197;-81
2022/11/17 12:49:18;;;;;;;5.35;4.85;;;4.50;99.90;;;;;;5037893;28;20231;-88
2022/11/17 12:52:03;;;;;;;5.55;5.05;;;4.50;99.90;;;;;;5057656;28;20201;-84
2022/11/17 12:54:44;;;;;;;6.45;4.38;;;4.50;99.90;;;;;;5059085;28;20215;-82
2022/11/17 12:57:34;;;;;;;6.10;5.07;;;4.50;99.90;;;;;;5054545;28;20268;-81
2022/11/17 13:00:24;;;;;;;5.95;5.40;;;4.40;99.90;;;;;;5036745;28;20202;-85
2022/11/17 13:03:20;;;;;;;7.72;5.38;;;4.50;99.90;;;;;;5046696;28;20205;-83
2022/11/17 13:06:09;;;;;;;5.95;5.13;;;4.50;99.90;;;;;;5041276;28;20264;-83
2022/11/17 13:09:05;;;;;;;5.05;4.57;;;4.50;99.90;;;;;;5045507;28;20276;-81
2022/11/17 13:11:37;;;;;;;7.55;6.85;;;4.50;99.90;;;;;;5049426;28;20252;-82
2022/11/17 13:14:15;;;;;;;5.80;4.88;;;4.40;99.90;;;;;;5053102;28;20209;-81
2022/11/17 13:16:57;;;;;;;5.93;5.07;;;4.50;99.90;;;;;;5048555;28;20224;-85
2022/11/17 13:19:40;;;;;;;5.75;5.25;;;4.40;99.90;;;;;;5054246;28;20184;-84
2022/11/17 13:22:20;;;;;;;6.40;5.80;;;4.50;99.90;;;;;;5050867;28;20224;-83
2022/11/17 13:24:52;;;;;;;6.57;5.90;;;4.50;99.90;;;;;;5052989;28;20213;-84
2022/11/17 13:27:35;;;;;;;6.97;5.75;;;4.50;99.90;;;;;;5053852;28;20211;-84
2022/11/17 13:30:27;;;;;;;8.07;5.30;;;4.40;99.90;;;;;;5049134;28;20251;-83
2022/11/17 13:33:15;;;;;;;9.63;6.55;;;4.50;99.90;;;;;;5047157;28;20204;-85
2022/11/17 13:35:44;;;;;;;6.65;5.20;;;4.40;99.90;;;;;;5041230;28;20247;-83
2022/11/17 13:38:27;;;;;;;6.25;5.65;;;4.40;99.90;;;;;;5054757;28;20212;-82
2022/11/17 13:41:12;;;;;;;5.97;5.07;;;4.30;99.90;;;;;;5044669;28;20201;-84
2022/11/17 13:43:54;;;;;;;6.93;6.22;;;4.40;99.90;;;;;;5030193;28;20200;-81
2022/11/17 13:46:30;;;;;;;6.97;6.22;;;4.30;99.90;;;;;;5043476;28;20280;-86
2022/11/17 13:49:00;;;;;;;7.45;6.75;;;4.30;99.90;;;;;;5037764;28;20209;-83
2022/11/17 13:51:38;;;;;;;7.15;6.20;;;4.20;99.90;;;;;;5052712;28;20207;-81
2022/11/17 13:54:12;;;;;;;8.48;6.63;;;4.10;99.90;;;;;;5043053;28;20197;-81